Time;durP1;ratioP1;P1;durP2;ratioP2;P2;SDS_P1;SDS_P2;PMS_P1;PMS_P2;Temp;Humidity;BMP_temperature;BMP_pressure;BME280_temperature;BME280_humidity;BME280_pressure;Samples;Min_cycle;Max_cycle;Signal;HPM_P1;HPM_P2
2022/11/11 00:01:59;;;;;;;3.05;1.98;;;7.50;99.90;;;;;;7369171;19;20375;-77
2022/11/11 00:04:42;;;;;;;3.67;2.20;;;7.50;99.90;;;;;;7373461;19;21218;-77
2022/11/11 00:07:27;;;;;;;2.27;2.00;;;7.50;99.90;;;;;;7370338;19;20424;-78
2022/11/11 00:10:11;;;;;;;2.35;2.15;;;7.50;99.90;;;;;;7373106;19;20327;-78
2022/11/11 00:12:59;;;;;;;4.00;2.00;;;7.50;99.90;;;;;;7368198;19;20466;-77
2022/11/11 00:15:44;;;;;;;2.60;1.90;;;7.50;99.90;;;;;;7372960;19;20340;-77
2022/11/11 00:27:29;;;;;;;5.00;2.30;;;7.50;99.90;;;;;;7369935;19;20335;-77
2022/11/11 00:30:13;;;;;;;2.47;2.17;;;7.40;99.90;;;;;;7372943;19;20340;-77
2022/11/11 00:32:57;;;;;;;3.97;2.50;;;7.40;99.90;;;;;;7368888;19;20378;-77
2022/11/11 00:35:54;;;;;;;3.28;2.80;;;7.50;99.90;;;;;;7371926;19;20377;-77
2022/11/11 00:38:45;;;;;;;6.88;3.25;;;7.40;99.90;;;;;;7371932;19;20333;-78
2022/11/11 00:41:29;;;;;;;5.93;2.70;;;7.40;99.90;;;;;;7369654;19;20366;-77
2022/11/11 00:44:13;;;;;;;5.60;3.42;;;7.40;99.90;;;;;;7372914;19;20506;-77
2022/11/11 00:53:07;;;;;;;4.03;2.67;;;7.30;99.90;;;;;;7369099;19;20378;-75
2022/11/11 00:55:51;;;;;;;4.75;2.75;;;7.30;99.90;;;;;;7370996;19;20766;-77
2022/11/11 00:58:36;;;;;;;3.70;2.72;;;7.20;99.90;;;;;;7369443;19;20338;-77
2022/11/11 01:01:20;;;;;;;4.50;2.78;;;7.20;99.90;;;;;;7369652;19;20356;-77
2022/11/11 01:04:04;;;;;;;4.45;2.40;;;7.20;99.90;;;;;;7351705;19;20331;-77
2022/11/11 01:06:48;;;;;;;3.10;2.70;;;7.10;99.90;;;;;;7369230;19;20375;-77
2022/11/11 01:09:32;;;;;;;4.60;2.83;;;7.20;99.90;;;;;;7372057;19;20363;-78
2022/11/11 01:12:16;;;;;;;3.67;2.37;;;7.10;99.90;;;;;;7367310;19;20429;-77
2022/11/11 01:15:00;;;;;;;3.47;2.28;;;7.20;99.90;;;;;;7372750;19;21035;-77
2022/11/11 01:17:44;;;;;;;3.97;2.72;;;7.20;99.90;;;;;;7370550;19;20384;-77
2022/11/11 01:20:28;;;;;;;2.43;2.23;;;7.10;99.90;;;;;;7369852;19;20400;-77
2022/11/11 01:23:13;;;;;;;3.03;2.35;;;7.20;99.90;;;;;;7368069;19;20359;-77
2022/11/11 01:26:05;;;;;;;2.93;2.63;;;7.20;99.90;;;;;;7370441;19;20360;-77
2022/11/11 01:28:50;;;;;;;4.57;2.55;;;7.20;99.90;;;;;;7370266;19;20336;-78
2022/11/11 01:31:34;;;;;;;3.60;2.63;;;7.10;99.90;;;;;;7367082;19;20662;-77
2022/11/11 01:34:18;;;;;;;2.53;2.00;;;7.20;99.90;;;;;;7372036;19;21442;-76
2022/11/11 01:37:02;;;;;;;2.65;2.40;;;7.10;99.90;;;;;;7368484;19;21189;-77
2022/11/11 01:39:47;;;;;;;3.07;2.40;;;7.10;99.90;;;;;;7370870;19;20360;-76
2022/11/11 01:42:44;;;;;;;4.00;2.50;;;7.20;99.90;;;;;;7366180;19;20375;-76
2022/11/11 01:45:59;;;;;;;2.42;2.10;;;7.10;99.90;;;;;;7369589;19;21101;-76
2022/11/11 01:52:00;;;;;;;4.70;2.88;;;7.10;99.90;;;;;;7369544;19;21368;-76
2022/11/11 01:54:52;;;;;;;4.10;2.40;;;7.10;99.90;;;;;;7377590;19;20373;-75
2022/11/11 01:57:36;;;;;;;2.83;2.40;;;7.10;99.90;;;;;;7377239;19;20828;-76
2022/11/11 02:00:20;;;;;;;2.92;2.25;;;7.10;99.90;;;;;;7383679;19;20385;-76
2022/11/11 02:03:06;;;;;;;3.03;2.40;;;7.10;99.90;;;;;;7373446;19;21087;-76
2022/11/11 02:05:56;;;;;;;2.58;2.30;;;7.10;99.90;;;;;;7377455;19;21278;-77
2022/11/11 02:08:40;;;;;;;3.70;2.63;;;7.20;99.90;;;;;;7376764;19;20364;-76
2022/11/11 02:14:41;;;;;;;2.90;2.60;;;7.10;99.90;;;;;;7376109;19;20458;-77
2022/11/11 02:17:27;;;;;;;4.20;2.67;;;7.00;99.90;;;;;;7374630;19;20385;-77
2022/11/11 02:20:13;;;;;;;5.20;2.92;;;7.00;99.90;;;;;;7376676;19;20378;-76
2022/11/11 02:23:01;;;;;;;4.80;2.67;;;7.00;99.90;;;;;;7372188;19;21101;-76
2022/11/11 02:25:46;;;;;;;4.38;2.80;;;7.00;99.90;;;;;;7376163;19;20352;-75
2022/11/11 02:28:30;;;;;;;3.13;2.30;;;7.00;99.90;;;;;;7376122;19;20355;-77
2022/11/11 02:31:15;;;;;;;2.35;2.10;;;7.00;99.90;;;;;;7374886;19;21368;-76
2022/11/11 02:33:59;;;;;;;2.75;2.42;;;7.00;99.90;;;;;;7374616;19;20397;-77
2022/11/11 02:36:43;;;;;;;3.90;2.50;;;6.90;99.90;;;;;;7374879;19;20353;-77
2022/11/11 02:39:28;;;;;;;2.63;2.40;;;7.00;99.90;;;;;;7376259;19;20408;-76
2022/11/11 02:42:12;;;;;;;4.43;2.58;;;7.00;99.90;;;;;;7368319;19;20389;-76
2022/11/11 02:44:58;;;;;;;4.07;2.60;;;7.00;99.90;;;;;;7375264;19;21357;-77
2022/11/11 02:47:42;;;;;;;2.90;2.60;;;7.00;99.90;;;;;;7369789;19;20440;-77
2022/11/11 02:50:26;;;;;;;2.60;2.40;;;7.00;99.90;;;;;;7375391;19;20877;-76
2022/11/11 02:53:10;;;;;;;4.53;2.90;;;7.00;99.90;;;;;;7371702;19;21362;-76
2022/11/11 02:55:55;;;;;;;4.25;2.60;;;7.00;99.90;;;;;;7376142;19;20352;-78
2022/11/11 02:58:38;;;;;;;3.40;2.50;;;7.00;99.90;;;;;;7373683;19;20350;-76
2022/11/11 03:01:23;;;;;;;4.03;2.80;;;7.00;99.90;;;;;;7374485;19;21313;-76
2022/11/11 03:04:07;;;;;;;4.47;2.75;;;7.10;99.90;;;;;;7374260;19;20334;-75
2022/11/11 03:06:51;;;;;;;4.25;2.70;;;7.00;99.90;;;;;;7371743;19;21429;-77
2022/11/11 03:09:35;;;;;;;3.40;2.50;;;7.00;99.90;;;;;;7375630;19;20988;-77
2022/11/11 03:12:19;;;;;;;4.35;2.70;;;7.10;99.90;;;;;;7372746;19;20377;-76
2022/11/11 03:15:03;;;;;;;3.92;2.90;;;7.10;99.90;;;;;;7373973;19;20343;-76
2022/11/11 03:17:48;;;;;;;2.90;2.58;;;7.10;99.90;;;;;;7373050;19;20327;-76
2022/11/11 03:23:35;;;;;;;3.88;2.40;;;7.10;99.90;;;;;;7372344;19;20379;-76
2022/11/11 03:26:20;;;;;;;2.97;2.22;;;7.10;99.90;;;;;;7373598;19;20365;-75
2022/11/11 03:29:04;;;;;;;4.50;2.67;;;7.20;99.90;;;;;;7375080;19;20331;-78
2022/11/11 03:31:48;;;;;;;3.63;2.75;;;7.20;99.90;;;;;;7370355;19;20363;-77
2022/11/11 03:34:32;;;;;;;4.50;2.47;;;7.20;99.90;;;;;;7374944;19;20376;-76
2022/11/11 03:40:19;;;;;;;2.53;2.20;;;7.20;99.90;;;;;;7376203;19;20410;-76
2022/11/11 03:43:03;;;;;;;2.70;2.45;;;7.20;99.90;;;;;;7370923;19;20388;-76
2022/11/11 03:45:48;;;;;;;3.47;2.40;;;7.30;99.90;;;;;;7374783;19;20405;-76
2022/11/11 03:48:33;;;;;;;4.20;2.42;;;7.30;99.90;;;;;;7371111;19;20387;-76
2022/11/11 03:51:17;;;;;;;2.42;2.20;;;7.30;99.90;;;;;;7373205;19;20371;-76
2022/11/11 03:54:01;;;;;;;3.10;2.40;;;7.20;99.90;;;;;;7372267;19;20356;-75
2022/11/11 03:56:45;;;;;;;2.65;2.17;;;7.20;99.90;;;;;;7371683;19;20349;-76
2022/11/11 03:59:29;;;;;;;2.60;2.30;;;7.30;99.90;;;;;;7377505;19;20364;-76
2022/11/11 04:11:28;;;;;;;3.45;2.47;;;7.20;99.90;;;;;;7370196;19;20352;-76
2022/11/11 04:17:16;;;;;;;3.08;2.53;;;7.20;99.90;;;;;;7370900;19;20381;-76
2022/11/11 04:23:03;;;;;;;3.38;2.50;;;7.10;99.90;;;;;;7369864;19;20383;-76
2022/11/11 04:25:47;;;;;;;3.08;2.60;;;7.10;99.90;;;;;;7371899;19;20364;-76
2022/11/11 04:31:34;;;;;;;6.07;3.43;;;7.10;99.90;;;;;;7371233;19;20353;-77
2022/11/11 04:34:18;;;;;;;4.10;3.38;;;7.10;99.90;;;;;;7371584;19;20381;-76
2022/11/11 04:37:03;;;;;;;4.78;3.20;;;7.10;99.90;;;;;;7370693;19;20715;-74
2022/11/11 04:42:52;;;;;;;4.95;2.83;;;7.20;99.90;;;;;;7368649;19;20379;-78
2022/11/11 04:45:37;;;;;;;3.83;2.70;;;7.20;99.90;;;;;;7373303;19;20340;-78
2022/11/11 04:48:21;;;;;;;3.20;2.67;;;7.20;99.90;;;;;;7371832;19;20933;-79
2022/11/11 04:51:06;;;;;;;3.28;2.55;;;7.20;99.90;;;;;;7371069;19;20380;-78
2022/11/11 04:53:50;;;;;;;3.83;2.38;;;7.30;99.90;;;;;;7369661;19;20389;-78
2022/11/11 04:56:47;;;;;;;3.45;2.78;;;7.20;99.90;;;;;;7369933;19;20348;-77
2022/11/11 04:59:31;;;;;;;3.47;2.40;;;7.30;99.90;;;;;;7372216;19;20356;-76
2022/11/11 05:05:17;;;;;;;2.60;2.33;;;7.30;99.90;;;;;;7373442;19;21264;-78
2022/11/11 05:11:05;;;;;;;3.17;2.70;;;7.40;99.90;;;;;;7368781;19;20348;-76
2022/11/11 05:23:01;;;;;;;2.88;2.28;;;7.40;99.90;;;;;;7369787;19;20396;-76
2022/11/11 05:25:45;;;;;;;2.60;2.10;;;7.40;99.90;;;;;;7377607;19;20368;-74
2022/11/11 05:28:29;;;;;;;2.90;2.40;;;7.50;99.90;;;;;;7375579;19;20476;-74
2022/11/11 05:31:14;;;;;;;2.10;1.90;;;7.50;99.90;;;;;;7372970;19;20369;-74
2022/11/11 05:33:58;;;;;;;2.67;2.20;;;7.50;99.90;;;;;;7376462;19;20349;-75
2022/11/11 05:36:42;;;;;;;2.85;2.42;;;7.40;99.90;;;;;;7378015;19;20356;-76
2022/11/11 05:39:26;;;;;;;2.83;2.10;;;7.50;99.90;;;;;;7377826;19;20347;-77
2022/11/11 05:42:10;;;;;;;2.28;2.00;;;7.50;99.90;;;;;;7372027;19;20434;-75
2022/11/11 05:44:55;;;;;;;4.03;2.60;;;7.40;99.90;;;;;;7377610;19;20386;-78
2022/11/11 05:47:39;;;;;;;3.80;2.15;;;7.40;99.90;;;;;;7372293;19;20344;-78
2022/11/11 05:50:23;;;;;;;3.60;2.30;;;7.40;99.90;;;;;;7373099;19;20336;-77
2022/11/11 05:53:08;;;;;;;2.65;2.30;;;7.40;99.90;;;;;;7368969;19;20397;-78
2022/11/11 05:55:52;;;;;;;4.50;2.40;;;7.40;99.90;;;;;;7375650;19;20929;-76
2022/11/11 05:58:36;;;;;;;3.63;2.20;;;7.40;99.90;;;;;;7376460;19;20335;-76
2022/11/11 06:01:20;;;;;;;3.83;2.10;;;7.30;99.90;;;;;;7375124;19;20343;-75
2022/11/11 06:04:07;;;;;;;2.85;2.30;;;7.30;99.90;;;;;;7374467;19;20996;-76
2022/11/11 06:06:51;;;;;;;4.40;2.92;;;7.30;99.90;;;;;;7373769;19;20368;-77
2022/11/11 06:09:35;;;;;;;3.30;2.60;;;7.30;99.90;;;;;;7377146;19;20384;-77
2022/11/11 06:12:19;;;;;;;4.47;3.40;;;7.30;99.90;;;;;;7370030;19;20374;-77
2022/11/11 06:15:04;;;;;;;3.08;2.72;;;7.30;99.90;;;;;;7373324;19;20374;-77
2022/11/11 06:17:48;;;;;;;4.50;2.67;;;7.30;99.90;;;;;;7373435;19;20349;-77
2022/11/11 06:20:34;;;;;;;3.47;2.53;;;7.40;99.90;;;;;;7373899;19;20371;-77
2022/11/11 06:23:18;;;;;;;3.10;2.40;;;7.50;99.90;;;;;;7371595;19;20402;-77
2022/11/11 06:26:15;;;;;;;2.40;2.20;;;7.40;99.90;;;;;;7370243;19;20331;-77
2022/11/11 06:28:59;;;;;;;2.22;2.10;;;7.40;99.90;;;;;;7371689;19;20919;-77
2022/11/11 06:31:44;;;;;;;3.53;2.22;;;7.50;99.90;;;;;;7365967;19;20384;-77
2022/11/11 06:34:28;;;;;;;3.15;2.45;;;7.50;99.90;;;;;;7369912;19;20377;-77
2022/11/11 06:37:12;;;;;;;3.20;2.15;;;7.50;99.90;;;;;;7368024;19;20332;-77
2022/11/11 06:39:56;;;;;;;4.47;2.65;;;7.50;99.90;;;;;;7372795;19;20410;-77
2022/11/11 06:42:40;;;;;;;6.60;4.03;;;7.50;99.90;;;;;;7195566;19;3411215;-77
2022/11/11 06:45:25;;;;;;;3.17;2.88;;;7.60;99.90;;;;;;7375488;19;20794;-78
2022/11/11 06:48:09;;;;;;;3.25;2.60;;;7.60;99.90;;;;;;7376796;19;20353;-77
2022/11/11 06:50:54;;;;;;;3.13;2.60;;;7.60;99.90;;;;;;7378670;19;20800;-77
2022/11/11 06:53:38;;;;;;;4.35;2.72;;;7.60;99.90;;;;;;7377213;19;20379;-78
2022/11/11 06:56:23;;;;;;;3.20;2.78;;;7.70;99.90;;;;;;7377035;19;20360;-80
2022/11/11 06:59:07;;;;;;;2.88;2.20;;;7.70;99.90;;;;;;7377158;19;20370;-78
2022/11/11 07:01:51;;;;;;;8.00;5.32;;;7.80;99.90;;;;;;7372878;19;20803;-77
2022/11/11 07:04:35;;;;;;;4.13;3.22;;;7.80;99.90;;;;;;7379678;19;20337;-78
2022/11/11 07:07:19;;;;;;;5.03;2.67;;;7.90;99.90;;;;;;7373446;19;20385;-79
2022/11/11 07:10:06;;;;;;;2.67;2.22;;;7.90;99.90;;;;;;7377604;19;20327;-77
2022/11/11 07:12:50;;;;;;;3.72;2.53;;;8.00;99.90;;;;;;7371399;19;21460;-77
2022/11/11 07:15:35;;;;;;;4.80;2.33;;;8.00;99.90;;;;;;7377492;19;21011;-77
2022/11/11 07:18:19;;;;;;;3.55;2.30;;;8.10;99.90;;;;;;7380020;19;20993;-79
2022/11/11 07:21:03;;;;;;;2.95;2.20;;;8.20;99.90;;;;;;7379094;19;20387;-80
2022/11/11 07:23:47;;;;;;;2.83;1.90;;;8.20;99.90;;;;;;7373564;19;20467;-79
2022/11/11 07:26:32;;;;;;;2.83;2.40;;;8.20;99.90;;;;;;7377199;19;20363;-79
2022/11/11 07:29:16;;;;;;;3.53;2.50;;;8.20;99.90;;;;;;7378021;19;20416;-79
2022/11/11 07:32:01;;;;;;;4.03;3.38;;;8.30;99.90;;;;;;7374114;19;21224;-78
2022/11/11 07:34:45;;;;;;;4.17;3.63;;;8.30;99.90;;;;;;7378977;19;20353;-79
2022/11/11 07:37:30;;;;;;;3.00;2.70;;;8.40;99.90;;;;;;7376825;19;20358;-79
2022/11/11 07:40:15;;;;;;;2.95;2.60;;;8.40;99.90;;;;;;7382187;19;20366;-78
2022/11/11 07:42:59;;;;;;;3.63;2.90;;;8.50;99.90;;;;;;7376815;19;20898;-79
2022/11/11 07:45:43;;;;;;;2.40;2.20;;;8.50;99.90;;;;;;7380350;19;20400;-78
2022/11/11 07:48:28;;;;;;;4.23;2.27;;;8.60;99.90;;;;;;7383019;19;20368;-80
2022/11/11 07:51:12;;;;;;;4.40;2.63;;;8.70;99.90;;;;;;7384800;19;20363;-79
2022/11/11 07:53:56;;;;;;;4.15;3.22;;;8.80;99.90;;;;;;7380879;19;20368;-78
2022/11/11 07:56:40;;;;;;;3.85;2.80;;;8.90;99.90;;;;;;7379940;19;21287;-78
2022/11/11 07:59:24;;;;;;;4.28;2.80;;;9.00;99.90;;;;;;7385241;19;20335;-77
2022/11/11 08:02:12;;;;;;;3.00;2.00;;;9.10;99.90;;;;;;7376488;19;20982;-78
2022/11/11 08:04:56;;;;;;;3.95;2.60;;;9.10;99.90;;;;;;7378603;19;20355;-78
2022/11/11 08:07:41;;;;;;;4.00;2.50;;;9.20;99.90;;;;;;7378565;19;20384;-80
2022/11/11 08:10:25;;;;;;;2.95;2.10;;;9.30;99.90;;;;;;7377987;19;20372;-77
2022/11/11 08:16:13;;;;;;;2.80;2.03;;;9.50;99.90;;;;;;7382562;19;20464;-77
2022/11/11 08:18:58;;;;;;;2.20;1.60;;;9.50;99.90;;;;;;7379128;19;20381;-78
2022/11/11 08:21:42;;;;;;;4.28;2.25;;;9.60;99.90;;;;;;7373469;19;20788;-76
2022/11/11 08:24:26;;;;;;;2.95;2.20;;;9.70;99.90;;;;;;7377609;19;20355;-79
2022/11/11 08:27:11;;;;;;;2.70;2.03;;;9.70;99.90;;;;;;7375254;19;20377;-78
2022/11/11 08:29:55;;;;;;;2.33;2.05;;;9.70;99.90;;;;;;7381665;19;20373;-79
2022/11/11 08:32:39;;;;;;;3.00;1.90;;;9.80;99.90;;;;;;7370868;19;20359;-77
2022/11/11 08:35:23;;;;;;;4.20;2.38;;;9.80;99.90;;;;;;7371192;19;20778;-78
2022/11/11 08:38:08;;;;;;;3.22;1.90;;;9.90;99.90;;;;;;7374830;19;20365;-78
2022/11/11 08:40:52;;;;;;;4.95;2.22;;;9.90;99.90;;;;;;7372213;19;20367;-78
2022/11/11 08:43:36;;;;;;;4.30;2.15;;;10.00;99.90;;;;;;7371851;19;20481;-78
2022/11/11 08:46:21;;;;;;;3.25;2.10;;;10.10;99.90;;;;;;7374532;19;20373;-78
2022/11/11 08:49:05;;;;;;;4.38;2.17;;;10.00;99.90;;;;;;7376232;19;20413;-78
2022/11/11 08:51:49;;;;;;;2.28;1.80;;;10.10;99.90;;;;;;7371869;19;20356;-79
2022/11/11 08:54:33;;;;;;;3.08;2.00;;;10.10;99.90;;;;;;7375774;19;20335;-78
2022/11/11 08:57:17;;;;;;;4.43;1.98;;;10.10;99.90;;;;;;7373079;19;20375;-79
2022/11/11 09:00:03;;;;;;;5.30;2.03;;;10.20;99.90;;;;;;7376477;19;20332;-78
2022/11/11 09:02:47;;;;;;;4.75;2.20;;;10.30;99.90;;;;;;7369856;19;20385;-78
2022/11/11 09:05:31;;;;;;;2.25;1.88;;;10.30;99.90;;;;;;7375279;19;20319;-78
2022/11/11 09:08:15;;;;;;;2.17;1.80;;;10.40;99.90;;;;;;7372463;19;20343;-78
2022/11/11 09:10:59;;;;;;;3.03;1.85;;;10.50;99.90;;;;;;7374336;19;20342;-78
2022/11/11 09:13:43;;;;;;;3.45;1.90;;;10.70;99.90;;;;;;7371595;19;20397;-78
2022/11/11 09:16:27;;;;;;;2.90;1.83;;;10.80;99.90;;;;;;7374576;19;20332;-78
2022/11/11 09:19:11;;;;;;;2.78;1.50;;;11.00;99.90;;;;;;7374465;19;20343;-78
2022/11/11 09:21:55;;;;;;;2.45;1.55;;;11.00;99.90;;;;;;7371778;19;20369;-77
2022/11/11 09:24:40;;;;;;;4.90;1.95;;;11.10;99.90;;;;;;7376137;19;20420;-78
2022/11/11 09:27:24;;;;;;;2.00;1.67;;;11.20;99.90;;;;;;7370763;19;20347;-78
2022/11/11 09:30:09;;;;;;;1.75;1.55;;;11.20;99.90;;;;;;7375506;19;20335;-79
2022/11/11 09:32:54;;;;;;;2.03;1.67;;;11.30;99.90;;;;;;7370303;19;20371;-79
2022/11/11 09:35:38;;;;;;;1.92;1.60;;;11.30;99.90;;;;;;7374532;19;20353;-78
2022/11/11 09:38:22;;;;;;;3.88;2.00;;;11.30;99.90;;;;;;7373382;19;20386;-79
2022/11/11 09:41:23;;;;;;;2.73;1.70;;;11.30;99.90;;;;;;7372276;19;20388;-78
2022/11/11 09:44:18;;;;;;;2.10;1.60;;;11.30;99.90;;;;;;7374525;19;20367;-79
2022/11/11 09:47:25;;;;;;;2.60;1.60;;;11.40;99.90;;;;;;7372593;19;20336;-78
2022/11/11 09:50:10;;;;;;;1.30;1.20;;;11.60;99.90;;;;;;7375265;19;20347;-78
2022/11/11 09:53:03;;;;;;;2.80;1.42;;;11.70;99.90;;;;;;7370065;19;20381;-79
2022/11/11 09:56:21;;;;;;;1.83;1.48;;;11.80;99.90;;;;;;7374170;19;21040;-77
2022/11/11 09:59:11;;;;;;;1.85;1.35;;;11.90;99.90;;;;;;7372839;19;20374;-78
2022/11/11 10:01:56;;;;;;;1.55;1.45;;;12.00;99.90;;;;;;7369982;19;20498;-78
2022/11/11 10:05:02;;;;;;;2.90;1.50;;;12.10;99.90;;;;;;7377930;19;20351;-79
2022/11/11 10:07:50;;;;;;;1.70;1.42;;;12.20;99.90;;;;;;7373113;19;20385;-79
2022/11/11 10:10:48;;;;;;;1.70;1.30;;;12.30;99.90;;;;;;7380111;19;20378;-78
2022/11/11 10:13:36;;;;;;;1.63;1.52;;;12.40;99.90;;;;;;7377484;19;20374;-81
2022/11/11 10:16:43;;;;;;;2.42;1.98;;;12.50;99.90;;;;;;7380528;19;20365;-78
2022/11/11 10:19:30;;;;;;;3.00;1.33;;;12.60;99.90;;;;;;7381885;19;20359;-78
2022/11/11 10:22:21;;;;;;;2.63;1.40;;;12.70;99.90;;;;;;7377380;19;20371;-79
2022/11/11 10:25:17;;;;;;;2.95;1.52;;;12.80;99.90;;;;;;7381531;19;20331;-78
2022/11/11 10:28:02;;;;;;;3.55;1.38;;;12.80;99.90;;;;;;7377859;19;20358;-78
2022/11/11 10:30:47;;;;;;;2.03;1.42;;;12.80;99.90;;;;;;7380138;19;20821;-77
2022/11/11 10:33:40;;;;;;;1.63;1.30;;;12.80;99.90;;;;;;7376111;19;20394;-78
2022/11/11 10:36:24;;;;;;;2.40;1.50;;;12.80;99.90;;;;;;7379051;19;20368;-78
2022/11/11 10:39:09;;;;;;;3.30;1.40;;;12.80;99.90;;;;;;7380263;19;21214;-78
2022/11/11 10:41:53;;;;;;;1.80;1.30;;;12.80;99.90;;;;;;7376318;19;20817;-78
2022/11/11 10:44:36;;;;;;;3.75;1.40;;;12.90;99.90;;;;;;7380035;19;20525;-78
2022/11/11 10:47:42;;;;;;;2.22;1.38;;;12.90;99.90;;;;;;7376334;19;20368;-79
2022/11/11 10:50:30;;;;;;;1.50;1.13;;;13.00;99.90;;;;;;7381937;19;20463;-78
2022/11/11 10:53:29;;;;;;;1.92;1.40;;;13.00;99.90;;;;;;7377233;19;20390;-78
2022/11/11 10:56:28;;;;;;;1.63;1.40;;;13.10;99.90;;;;;;7379723;19;20464;-77
2022/11/11 10:59:23;;;;;;;2.20;1.58;;;13.10;99.90;;;;;;7380891;19;20375;-78
2022/11/11 11:02:56;;;;;;;2.35;1.70;;;13.10;99.90;;;;;;7381208;19;20384;-84
2022/11/11 11:05:52;;;;;;;2.80;1.63;;;13.20;99.90;;;;;;7403113;19;20352;-86
2022/11/11 11:08:52;;;;;;;2.42;1.85;;;13.20;99.90;;;;;;7401165;19;20378;-82
2022/11/11 11:11:49;;;;;;;3.58;1.50;;;13.30;99.90;;;;;;7392937;19;20348;-82
2022/11/11 11:14:43;;;;;;;1.60;1.20;;;13.30;99.90;;;;;;7399919;19;20359;-84
2022/11/11 11:18:19;;;;;;;2.67;1.70;;;13.30;99.90;;;;;;7402412;19;20445;-88
2022/11/11 11:21:06;;;;;;;2.45;1.38;;;13.30;99.90;;;;;;7395901;19;20420;-83
2022/11/11 11:23:50;;;;;;;1.70;1.25;;;13.40;99.90;;;;;;7396027;19;20364;-81
2022/11/11 11:26:45;;;;;;;1.90;1.42;;;13.50;99.90;;;;;;7392414;19;21278;-87
2022/11/11 11:29:37;;;;;;;1.80;1.20;;;13.50;99.90;;;;;;7397564;19;20344;-81
2022/11/11 11:32:31;;;;;;;1.65;1.30;;;13.50;99.90;;;;;;7392259;19;20376;-84
2022/11/11 11:35:37;;;;;;;1.92;1.50;;;13.50;99.90;;;;;;7396029;19;20369;-82
2022/11/11 11:38:45;;;;;;;3.60;1.30;;;13.50;99.90;;;;;;7395735;19;20373;-81
2022/11/11 11:41:50;;;;;;;1.70;1.40;;;13.40;99.90;;;;;;7399297;19;20402;-85
2022/11/11 11:44:49;;;;;;;1.70;1.20;;;13.40;99.90;;;;;;7394295;19;20373;-81
2022/11/11 11:47:56;;;;;;;2.17;1.20;;;13.40;99.90;;;;;;7390366;19;20367;-86
2022/11/11 11:51:17;;;;;;;1.13;1.03;;;13.30;99.90;;;;;;7401066;19;20356;-85
2022/11/11 11:54:24;;;;;;;1.92;1.05;;;13.40;99.90;;;;;;7395529;19;20358;-84
2022/11/11 11:57:34;;;;;;;1.85;1.20;;;13.50;99.90;;;;;;7395327;19;20351;-82
2022/11/11 12:00:25;;;;;;;1.92;1.40;;;13.40;99.90;;;;;;7396911;19;20355;-85
2022/11/11 12:03:34;;;;;;;3.78;1.30;;;13.40;99.90;;;;;;7391799;19;20368;-82
2022/11/11 12:06:27;;;;;;;3.20;1.33;;;13.40;99.90;;;;;;7398721;19;20367;-85
2022/11/11 12:17:04;;;;;;;1.75;1.40;;;13.60;99.90;;;;;;7407673;19;20348;-82
2022/11/11 12:20:13;;;;;;;1.33;1.20;;;13.70;99.90;;;;;;7410903;19;20370;-86
2022/11/11 12:23:32;;;;;;;1.73;1.02;;;13.70;99.90;;;;;;7397995;19;20377;-85
2022/11/11 12:26:36;;;;;;;2.80;1.70;;;13.60;99.90;;;;;;7397082;19;20369;-83
2022/11/11 12:33:37;;;;;;;1.60;1.40;;;13.60;99.90;;;;;;7399865;19;20352;-79
2022/11/11 12:36:35;;;;;;;1.90;1.08;;;13.60;99.90;;;;;;7394202;19;20362;-83
2022/11/11 12:46:36;;;;;;;1.55;1.30;;;13.50;99.90;;;;;;7412010;19;20357;-80
2022/11/11 12:50:18;;;;;;;1.42;1.23;;;13.50;99.90;;;;;;7411004;19;20366;-82
2022/11/11 12:53:29;;;;;;;3.97;1.50;;;13.50;99.90;;;;;;7393432;19;20423;-85
2022/11/11 12:56:22;;;;;;;2.00;1.27;;;13.50;99.90;;;;;;7395158;19;20723;-81
2022/11/11 12:59:32;;;;;;;4.00;1.10;;;13.50;99.90;;;;;;7397268;19;20371;-81
2022/11/11 13:02:25;;;;;;;2.90;1.30;;;13.50;99.90;;;;;;7378985;19;20410;-83
2022/11/11 13:05:18;;;;;;;1.55;1.05;;;13.40;99.90;;;;;;7386540;19;20335;-82
2022/11/11 13:08:08;;;;;;;1.55;1.10;;;13.50;99.90;;;;;;7396661;19;20482;-83
2022/11/11 13:11:10;;;;;;;2.30;1.20;;;13.50;99.90;;;;;;7382288;19;20367;-81
2022/11/11 13:14:15;;;;;;;1.20;1.10;;;13.40;99.90;;;;;;7379674;19;20368;-81
2022/11/11 13:17:00;;;;;;;2.80;1.30;;;13.40;99.90;;;;;;7383095;19;20331;-81
2022/11/11 13:19:59;;;;;;;2.20;1.20;;;13.40;99.90;;;;;;7410471;19;20371;-84
2022/11/11 13:22:43;;;;;;;2.13;1.20;;;13.40;99.90;;;;;;7377255;19;20381;-81
2022/11/11 13:25:31;;;;;;;1.40;1.27;;;13.30;99.90;;;;;;7398544;19;21009;-81
2022/11/11 13:28:31;;;;;;;1.63;1.15;;;13.30;99.90;;;;;;7391301;19;20351;-83
2022/11/11 13:34:21;;;;;;;1.98;1.30;;;13.30;99.90;;;;;;7393594;19;20436;-83
2022/11/11 13:37:06;;;;;;;2.63;1.27;;;13.20;99.90;;;;;;7390248;19;20434;-84
2022/11/11 13:39:51;;;;;;;1.37;1.20;;;13.10;99.90;;;;;;7412887;19;20376;-85
2022/11/11 13:42:40;;;;;;;1.75;1.30;;;13.10;99.90;;;;;;7409051;19;20368;-82
2022/11/11 13:45:32;;;;;;;1.30;1.10;;;13.10;99.90;;;;;;7399323;19;20410;-82
2022/11/11 13:48:25;;;;;;;1.45;1.08;;;13.10;99.90;;;;;;7397151;19;20937;-80
2022/11/11 13:51:34;;;;;;;2.55;1.42;;;13.10;99.90;;;;;;7416192;19;20352;-81
2022/11/11 13:54:26;;;;;;;1.60;1.10;;;13.10;99.90;;;;;;7407950;19;20371;-82
2022/11/11 13:57:20;;;;;;;1.80;1.60;;;13.10;99.90;;;;;;7415491;19;20368;-83
2022/11/11 14:00:05;;;;;;;1.80;1.13;;;13.10;99.90;;;;;;7386493;19;20922;-85
2022/11/11 14:03:21;;;;;;;1.80;1.30;;;13.10;99.90;;;;;;7413669;19;20418;-80
2022/11/11 14:06:14;;;;;;;1.40;1.30;;;13.00;99.90;;;;;;7417765;19;20370;-84
2022/11/11 14:08:58;;;;;;;2.42;0.98;;;13.00;99.90;;;;;;7418987;19;20365;-83
2022/11/11 14:11:43;;;;;;;2.25;1.30;;;13.00;99.90;;;;;;7411954;19;20384;-76
2022/11/11 14:14:33;;;;;;;2.53;1.85;;;12.90;99.90;;;;;;7388925;19;20393;-74
2022/11/11 14:17:17;;;;;;;2.23;1.40;;;12.80;99.90;;;;;;7383868;19;20429;-78
2022/11/11 14:20:39;;;;;;;1.88;1.40;;;12.80;99.90;;;;;;7386080;19;20373;-78
2022/11/11 14:23:33;;;;;;;2.33;1.30;;;12.80;99.90;;;;;;7380328;19;21002;-77
2022/11/11 14:26:24;;;;;;;1.40;1.30;;;12.90;99.90;;;;;;7380110;19;20367;-78
2022/11/11 14:29:17;;;;;;;2.47;2.28;;;12.90;99.90;;;;;;7385612;19;20341;-77
2022/11/11 14:32:10;;;;;;;2.13;1.60;;;12.90;99.90;;;;;;7383024;19;20359;-77
2022/11/11 14:35:18;;;;;;;1.50;1.40;;;13.00;99.90;;;;;;7382608;19;20373;-75
2022/11/11 14:38:30;;;;;;;8.55;5.78;;;12.90;99.90;;;;;;7382898;19;20494;-76
2022/11/11 14:41:39;;;;;;;19.70;12.30;;;12.90;99.90;;;;;;7386015;19;21017;-77
2022/11/11 14:44:32;;;;;;;39.50;21.53;;;12.80;99.90;;;;;;7381367;19;20339;-77
2022/11/11 14:47:22;;;;;;;7.63;5.20;;;12.70;99.90;;;;;;7375309;19;20394;-77
2022/11/11 14:50:31;;;;;;;12.13;7.75;;;12.60;99.90;;;;;;7379849;19;20367;-77
2022/11/11 14:53:17;;;;;;;4.20;2.58;;;12.60;99.90;;;;;;7378849;19;20384;-77
2022/11/11 14:56:01;;;;;;;1.60;1.42;;;12.50;99.90;;;;;;7383630;19;20386;-76
2022/11/11 14:58:46;;;;;;;2.60;1.60;;;12.40;99.90;;;;;;7378230;19;20339;-80
2022/11/11 15:01:30;;;;;;;2.33;1.60;;;12.40;99.90;;;;;;7375651;19;20343;-77
2022/11/11 15:04:14;;;;;;;2.53;1.60;;;12.40;99.90;;;;;;7374496;19;20476;-76
2022/11/11 15:06:59;;;;;;;2.97;1.65;;;12.30;99.90;;;;;;7375303;19;20331;-76
2022/11/11 15:10:22;;;;;;;2.13;1.60;;;12.20;99.90;;;;;;7379359;19;20339;-78
2022/11/11 15:13:16;;;;;;;1.85;1.55;;;12.30;99.90;;;;;;7370459;19;20384;-75
2022/11/11 15:16:21;;;;;;;1.80;1.30;;;12.20;99.90;;;;;;7378080;19;20341;-75
2022/11/11 15:19:23;;;;;;;3.38;2.08;;;12.20;99.90;;;;;;7377189;19;20368;-75
2022/11/11 15:22:35;;;;;;;2.78;2.13;;;12.10;99.90;;;;;;7371930;19;20377;-76
2022/11/11 15:25:22;;;;;;;5.20;2.75;;;12.10;99.90;;;;;;7376708;19;20359;-76
2022/11/11 15:28:42;;;;;;;2.53;1.83;;;12.00;99.90;;;;;;7373543;19;20359;-75
2022/11/11 15:32:10;;;;;;;2.33;2.13;;;12.00;99.90;;;;;;7374167;19;20343;-76
2022/11/11 15:35:27;;;;;;;3.15;2.10;;;12.00;99.90;;;;;;7371070;19;20369;-74
2022/11/11 15:38:14;;;;;;;5.45;3.13;;;12.00;99.90;;;;;;7372458;19;20354;-76
2022/11/11 15:40:58;;;;;;;3.08;2.05;;;12.00;99.90;;;;;;7372194;19;20340;-75
2022/11/11 15:43:43;;;;;;;3.10;2.80;;;11.90;99.90;;;;;;7371453;19;20388;-75
2022/11/11 15:46:28;;;;;;;5.88;4.18;;;11.80;99.90;;;;;;7372166;19;20328;-75
2022/11/11 15:49:14;;;;;;;8.90;6.45;;;11.70;99.90;;;;;;7372997;19;21397;-76
2022/11/11 15:51:59;;;;;;;6.05;4.82;;;11.70;99.90;;;;;;7369980;19;20367;-75
2022/11/11 15:54:43;;;;;;;4.07;3.50;;;11.70;99.90;;;;;;7372403;19;20331;-76
2022/11/11 15:57:28;;;;;;;4.15;3.08;;;11.60;99.90;;;;;;7370751;19;20441;-75
2022/11/11 16:00:27;;;;;;;4.07;3.15;;;11.60;99.90;;;;;;7374159;19;20381;-74
2022/11/11 16:03:14;;;;;;;6.00;3.83;;;11.60;99.90;;;;;;7369922;19;20909;-75
2022/11/11 16:05:59;;;;;;;7.35;4.65;;;11.60;99.90;;;;;;7373784;19;20358;-75
2022/11/11 16:08:45;;;;;;;12.03;9.47;;;11.60;99.90;;;;;;7374268;19;20343;-75
2022/11/11 16:11:30;;;;;;;12.93;8.25;;;11.40;99.90;;;;;;7372546;19;20382;-75
2022/11/11 16:14:36;;;;;;;19.00;10.48;;;11.40;99.90;;;;;;7375236;19;20336;-75
2022/11/11 16:17:22;;;;;;;48.22;26.00;;;11.30;99.90;;;;;;7371131;19;20456;-74
2022/11/11 16:20:12;;;;;;;43.83;25.77;;;11.30;99.90;;;;;;7373549;19;20373;-74